sensor_id;sensor_type;location;lat;lon;timestamp;pressure;altitude;pressure_sealevel;temperature;humidity
9307;BME280;4691;47.612;7.610;2023-04-04T00:00:12;99410.44;;;3.17;100.00
9307;BME280;4691;47.612;7.610;2023-04-04T00:02:37;99422.59;;;3.21;100.00
9307;BME280;4691;47.612;7.610;2023-04-04T00:05:06;99419.16;;;3.19;100.00
9307;BME280;4691;47.612;7.610;2023-04-04T00:07:32;99406.56;;;3.02;100.00
9307;BME280;4691;47.612;7.610;2023-04-04T00:09:58;99418.69;;;2.84;100.00
9307;BME280;4691;47.612;7.610;2023-04-04T00:12:23;99404.75;;;3.26;100.00
9307;BME280;4691;47.612;7.610;2023-04-04T00:14:49;99391.75;;;3.43;100.00
9307;BME280;4691;47.612;7.610;2023-04-04T00:17:15;99383.16;;;3.38;100.00
9307;BME280;4691;47.612;7.610;2023-04-04T00:19:40;99398.16;;;3.38;100.00
9307;BME280;4691;47.612;7.610;2023-04-04T00:22:06;99392.13;;;3.34;100.00
9307;BME280;4691;47.612;7.610;2023-04-04T00:24:32;99385.78;;;3.38;100.00
9307;BME280;4691;47.612;7.610;2023-04-04T00:26:58;99384.88;;;3.39;100.00
9307;BME280;4691;47.612;7.610;2023-04-04T00:29:23;99376.69;;;3.45;100.00
9307;BME280;4691;47.612;7.610;2023-04-04T00:31:48;99374.69;;;3.52;100.00
9307;BME280;4691;47.612;7.610;2023-04-04T00:34:13;99364.03;;;3.54;100.00
9307;BME280;4691;47.612;7.610;2023-04-04T00:36:39;99364.56;;;3.62;100.00
9307;BME280;4691;47.612;7.610;2023-04-04T00:39:04;99349.81;;;3.78;100.00
9307;BME280;4691;47.612;7.610;2023-04-04T00:41:30;99344.91;;;3.89;100.00
9307;BME280;4691;47.612;7.610;2023-04-04T00:43:55;99335.25;;;3.88;100.00
9307;BME280;4691;47.612;7.610;2023-04-04T00:46:21;99359.56;;;3.76;100.00
9307;BME280;4691;47.612;7.610;2023-04-04T00:48:48;99335.59;;;3.81;100.00
9307;BME280;4691;47.612;7.610;2023-04-04T00:51:14;99332.94;;;3.81;100.00
9307;BME280;4691;47.612;7.610;2023-04-04T00:53:43;99350.69;;;3.77;100.00
9307;BME280;4691;47.612;7.610;2023-04-04T00:56:14;99348.63;;;3.63;100.00
9307;BME280;4691;47.612;7.610;2023-04-04T00:58:40;99330.47;;;3.76;100.00
9307;BME280;4691;47.612;7.610;2023-04-04T01:01:06;99340.75;;;3.62;100.00
9307;BME280;4691;47.612;7.610;2023-04-04T01:03:32;99314.09;;;3.88;100.00
9307;BME280;4691;47.612;7.610;2023-04-04T01:05:58;99310.78;;;3.83;100.00
9307;BME280;4691;47.612;7.610;2023-04-04T01:08:25;99321.06;;;3.69;100.00
9307;BME280;4691;47.612;7.610;2023-04-04T01:10:50;99322.91;;;3.67;100.00
9307;BME280;4691;47.612;7.610;2023-04-04T01:13:16;99325.81;;;3.61;100.00
9307;BME280;4691;47.612;7.610;2023-04-04T01:15:41;99316.63;;;3.69;100.00
9307;BME280;4691;47.612;7.610;2023-04-04T01:18:08;99324.34;;;3.76;100.00
9307;BME280;4691;47.612;7.610;2023-04-04T01:20:46;99330.75;;;3.70;100.00
9307;BME280;4691;47.612;7.610;2023-04-04T01:23:15;99331.63;;;3.48;100.00
9307;BME280;4691;47.612;7.610;2023-04-04T01:25:41;99316.44;;;3.74;100.00
9307;BME280;4691;47.612;7.610;2023-04-04T01:28:07;99304.16;;;3.73;100.00
9307;BME280;4691;47.612;7.610;2023-04-04T01:30:34;99298.69;;;3.78;100.00
9307;BME280;4691;47.612;7.610;2023-04-04T01:33:08;99290.41;;;3.85;100.00
9307;BME280;4691;47.612;7.610;2023-04-04T01:35:43;99291.84;;;3.92;100.00
9307;BME280;4691;47.612;7.610;2023-04-04T01:40:51;99277.28;;;4.03;100.00
9307;BME280;4691;47.612;7.610;2023-04-04T01:43:19;99285.66;;;3.93;100.00
9307;BME280;4691;47.612;7.610;2023-04-04T01:45:44;99278.09;;;3.84;100.00
9307;BME280;4691;47.612;7.610;2023-04-04T01:48:10;99280.59;;;3.87;100.00
9307;BME280;4691;47.612;7.610;2023-04-04T01:50:35;99282.34;;;3.88;100.00
9307;BME280;4691;47.612;7.610;2023-04-04T01:53:01;99290.00;;;3.74;100.00
9307;BME280;4691;47.612;7.610;2023-04-04T01:55:26;99280.75;;;3.84;100.00
9307;BME280;4691;47.612;7.610;2023-04-04T01:57:52;99274.97;;;3.75;100.00
9307;BME280;4691;47.612;7.610;2023-04-04T02:00:17;99280.75;;;3.84;100.00
9307;BME280;4691;47.612;7.610;2023-04-04T02:02:43;99263.63;;;3.93;100.00
9307;BME280;4691;47.612;7.610;2023-04-04T02:05:08;99264.00;;;3.84;100.00
9307;BME280;4691;47.612;7.610;2023-04-04T02:07:34;99274.66;;;3.82;100.00
9307;BME280;4691;47.612;7.610;2023-04-04T02:09:59;99275.59;;;3.81;100.00
9307;BME280;4691;47.612;7.610;2023-04-04T02:12:25;99270.25;;;3.83;100.00
9307;BME280;4691;47.612;7.610;2023-04-04T02:14:51;99268.69;;;3.98;100.00
9307;BME280;4691;47.612;7.610;2023-04-04T02:19:31;99272.13;;;3.79;100.00
9307;BME280;4691;47.612;7.610;2023-04-04T02:21:57;99265.53;;;3.69;100.00
9307;BME280;4691;47.612;7.610;2023-04-04T02:24:22;99272.41;;;3.73;100.00
9307;BME280;4691;47.612;7.610;2023-04-04T02:26:48;99280.81;;;3.62;100.00
9307;BME280;4691;47.612;7.610;2023-04-04T02:29:13;99283.38;;;3.64;100.00
9307;BME280;4691;47.612;7.610;2023-04-04T02:31:38;99270.00;;;3.67;100.00
9307;BME280;4691;47.612;7.610;2023-04-04T02:34:03;99266.72;;;3.62;100.00
9307;BME280;4691;47.612;7.610;2023-04-04T02:36:29;99267.78;;;3.58;100.00
9307;BME280;4691;47.612;7.610;2023-04-04T02:38:54;99282.91;;;3.54;100.00
9307;BME280;4691;47.612;7.610;2023-04-04T02:41:20;99292.34;;;3.39;100.00
9307;BME280;4691;47.612;7.610;2023-04-04T02:43:45;99279.00;;;3.42;100.00
9307;BME280;4691;47.612;7.610;2023-04-04T02:46:11;99286.63;;;3.28;100.00
9307;BME280;4691;47.612;7.610;2023-04-04T02:48:36;99282.00;;;3.33;100.00
9307;BME280;4691;47.612;7.610;2023-04-04T02:51:01;99272.53;;;3.49;100.00
9307;BME280;4691;47.612;7.610;2023-04-04T02:53:27;99267.13;;;3.53;100.00
9307;BME280;4691;47.612;7.610;2023-04-04T02:55:52;99275.69;;;3.37;100.00
9307;BME280;4691;47.612;7.610;2023-04-04T02:58:17;99272.97;;;3.39;100.00
9307;BME280;4691;47.612;7.610;2023-04-04T03:00:43;99276.84;;;3.30;100.00
9307;BME280;4691;47.612;7.610;2023-04-04T03:03:08;99284.78;;;3.30;100.00
9307;BME280;4691;47.612;7.610;2023-04-04T03:05:33;99273.44;;;3.48;100.00
9307;BME280;4691;47.612;7.610;2023-04-04T03:07:59;99272.09;;;3.38;100.00
9307;BME280;4691;47.612;7.610;2023-04-04T03:10:27;99275.00;;;3.32;100.00
9307;BME280;4691;47.612;7.610;2023-04-04T03:12:55;99271.56;;;3.30;100.00
9307;BME280;4691;47.612;7.610;2023-04-04T03:15:21;99284.50;;;3.36;100.00
9307;BME280;4691;47.612;7.610;2023-04-04T03:17:47;99279.75;;;3.24;100.00
9307;BME280;4691;47.612;7.610;2023-04-04T03:20:13;99292.53;;;3.13;100.00
9307;BME280;4691;47.612;7.610;2023-04-04T03:22:39;99282.81;;;3.13;100.00
9307;BME280;4691;47.612;7.610;2023-04-04T03:25:05;99283.25;;;3.24;100.00
9307;BME280;4691;47.612;7.610;2023-04-04T03:27:30;99290.19;;;3.05;100.00
9307;BME280;4691;47.612;7.610;2023-04-04T03:29:56;99312.69;;;2.93;100.00
9307;BME280;4691;47.612;7.610;2023-04-04T03:32:22;99291.81;;;3.09;100.00
9307;BME280;4691;47.612;7.610;2023-04-04T03:34:47;99293.69;;;3.05;100.00
9307;BME280;4691;47.612;7.610;2023-04-04T03:37:12;99298.78;;;2.88;100.00
9307;BME280;4691;47.612;7.610;2023-04-04T03:39:37;99308.00;;;2.78;100.00
9307;BME280;4691;47.612;7.610;2023-04-04T03:42:03;99308.69;;;2.83;100.00
9307;BME280;4691;47.612;7.610;2023-04-04T03:44:28;99303.41;;;2.83;100.00
9307;BME280;4691;47.612;7.610;2023-04-04T03:46:53;99296.31;;;2.83;100.00
9307;BME280;4691;47.612;7.610;2023-04-04T03:49:19;99309.84;;;2.76;100.00
9307;BME280;4691;47.612;7.610;2023-04-04T03:51:44;99337.63;;;2.39;100.00
9307;BME280;4691;47.612;7.610;2023-04-04T03:54:10;99341.59;;;2.26;100.00
9307;BME280;4691;47.612;7.610;2023-04-04T03:56:35;99347.09;;;2.20;100.00
9307;BME280;4691;47.612;7.610;2023-04-04T03:59:00;99354.44;;;2.11;100.00
9307;BME280;4691;47.612;7.610;2023-04-04T04:01:26;99352.91;;;2.04;100.00
9307;BME280;4691;47.612;7.610;2023-04-04T04:03:51;99360.00;;;2.02;100.00
9307;BME280;4691;47.612;7.610;2023-04-04T04:06:16;99382.03;;;1.74;100.00
9307;BME280;4691;47.612;7.610;2023-04-04T04:08:41;99387.53;;;1.68;100.00
9307;BME280;4691;47.612;7.610;2023-04-04T04:11:07;99393.41;;;1.50;100.00
9307;BME280;4691;47.612;7.610;2023-04-04T04:13:35;99389.25;;;1.41;100.00
9307;BME280;4691;47.612;7.610;2023-04-04T04:16:02;99393.16;;;1.29;100.00
9307;BME280;4691;47.612;7.610;2023-04-04T04:18:28;99396.72;;;1.28;100.00
9307;BME280;4691;47.612;7.610;2023-04-04T04:20:57;99402.25;;;1.19;100.00
9307;BME280;4691;47.612;7.610;2023-04-04T04:23:28;99378.53;;;1.19;100.00
9307;BME280;4691;47.612;7.610;2023-04-04T04:25:54;99383.31;;;1.06;100.00
9307;BME280;4691;47.612;7.610;2023-04-04T04:28:20;99375.16;;;1.16;100.00
9307;BME280;4691;47.612;7.610;2023-04-04T04:30:45;99368.25;;;1.12;100.00
9307;BME280;4691;47.612;7.610;2023-04-04T04:33:11;99355.69;;;1.20;100.00
9307;BME280;4691;47.612;7.610;2023-04-04T04:35:36;99355.75;;;1.18;100.00
9307;BME280;4691;47.612;7.610;2023-04-04T04:38:02;99360.13;;;1.18;100.00
9307;BME280;4691;47.612;7.610;2023-04-04T04:40:28;99347.13;;;1.13;100.00
9307;BME280;4691;47.612;7.610;2023-04-04T04:42:53;99354.63;;;1.25;100.00
9307;BME280;4691;47.612;7.610;2023-04-04T04:45:18;99347.66;;;0.95;100.00
9307;BME280;4691;47.612;7.610;2023-04-04T04:47:43;99318.66;;;0.96;100.00
9307;BME280;4691;47.612;7.610;2023-04-04T04:50:09;99309.09;;;0.94;100.00
9307;BME280;4691;47.612;7.610;2023-04-04T04:52:37;99309.00;;;0.97;100.00
9307;BME280;4691;47.612;7.610;2023-04-04T04:55:03;99285.38;;;0.94;100.00
9307;BME280;4691;47.612;7.610;2023-04-04T04:57:29;99286.22;;;0.96;100.00
9307;BME280;4691;47.612;7.610;2023-04-04T04:59:54;99293.41;;;0.91;100.00
9307;BME280;4691;47.612;7.610;2023-04-04T05:02:20;99296.97;;;0.88;100.00
9307;BME280;4691;47.612;7.610;2023-04-04T05:04:45;99298.22;;;1.04;100.00
9307;BME280;4691;47.612;7.610;2023-04-04T05:07:10;99301.31;;;0.89;100.00
9307;BME280;4691;47.612;7.610;2023-04-04T05:09:37;99305.41;;;0.99;100.00
9307;BME280;4691;47.612;7.610;2023-04-04T05:12:02;99299.78;;;0.82;100.00
9307;BME280;4691;47.612;7.610;2023-04-04T05:14:30;99309.84;;;0.97;100.00
9307;BME280;4691;47.612;7.610;2023-04-04T05:16:56;99304.31;;;1.06;100.00
9307;BME280;4691;47.612;7.610;2023-04-04T05:19:21;99317.50;;;1.05;100.00
9307;BME280;4691;47.612;7.610;2023-04-04T05:21:46;99315.91;;;1.01;100.00
9307;BME280;4691;47.612;7.610;2023-04-04T05:24:12;99314.56;;;0.88;100.00
9307;BME280;4691;47.612;7.610;2023-04-04T05:26:37;99319.66;;;0.92;100.00
9307;BME280;4691;47.612;7.610;2023-04-04T05:29:03;99325.75;;;0.94;100.00
9307;BME280;4691;47.612;7.610;2023-04-04T05:31:28;99314.25;;;0.97;100.00
9307;BME280;4691;47.612;7.610;2023-04-04T05:33:53;99317.09;;;0.91;100.00
9307;BME280;4691;47.612;7.610;2023-04-04T05:36:19;99324.53;;;0.76;100.00
9307;BME280;4691;47.612;7.610;2023-04-04T05:38:44;99320.09;;;0.78;100.00
9307;BME280;4691;47.612;7.610;2023-04-04T05:41:12;99314.81;;;0.78;100.00
9307;BME280;4691;47.612;7.610;2023-04-04T05:43:37;99308.72;;;0.78;100.00
9307;BME280;4691;47.612;7.610;2023-04-04T05:46:03;99311.56;;;0.70;100.00
9307;BME280;4691;47.612;7.610;2023-04-04T05:48:28;99322.22;;;0.95;100.00
9307;BME280;4691;47.612;7.610;2023-04-04T05:50:54;99332.34;;;1.07;100.00
9307;BME280;4691;47.612;7.610;2023-04-04T05:53:20;99329.47;;;1.15;100.00
9307;BME280;4691;47.612;7.610;2023-04-04T05:55:45;99330.31;;;1.17;100.00
9307;BME280;4691;47.612;7.610;2023-04-04T05:58:10;99339.94;;;1.18;100.00
9307;BME280;4691;47.612;7.610;2023-04-04T06:00:36;99341.28;;;1.32;100.00
9307;BME280;4691;47.612;7.610;2023-04-04T06:03:03;99348.88;;;1.41;100.00
9307;BME280;4691;47.612;7.610;2023-04-04T06:05:28;99344.13;;;1.52;100.00
9307;BME280;4691;47.612;7.610;2023-04-04T06:07:53;99350.56;;;1.70;100.00
9307;BME280;4691;47.612;7.610;2023-04-04T06:10:19;99352.06;;;1.50;100.00
9307;BME280;4691;47.612;7.610;2023-04-04T06:12:44;99348.22;;;1.61;100.00
9307;BME280;4691;47.612;7.610;2023-04-04T06:15:09;99351.34;;;1.72;100.00
9307;BME280;4691;47.612;7.610;2023-04-04T06:17:35;99362.94;;;1.68;100.00
9307;BME280;4691;47.612;7.610;2023-04-04T06:20:00;99363.94;;;1.64;100.00
9307;BME280;4691;47.612;7.610;2023-04-04T06:22:26;99379.91;;;1.86;100.00
9307;BME280;4691;47.612;7.610;2023-04-04T06:24:51;99381.00;;;2.05;100.00
9307;BME280;4691;47.612;7.610;2023-04-04T06:27:16;99380.09;;;1.80;100.00
9307;BME280;4691;47.612;7.610;2023-04-04T06:29:42;99374.44;;;1.92;100.00
9307;BME280;4691;47.612;7.610;2023-04-04T06:32:08;99376.53;;;2.07;100.00
9307;BME280;4691;47.612;7.610;2023-04-04T06:34:33;99375.31;;;2.17;100.00
9307;BME280;4691;47.612;7.610;2023-04-04T06:36:58;99370.03;;;2.17;100.00
9307;BME280;4691;47.612;7.610;2023-04-04T06:39:24;99373.00;;;2.33;100.00
9307;BME280;4691;47.612;7.610;2023-04-04T06:41:49;99374.19;;;2.25;100.00
9307;BME280;4691;47.612;7.610;2023-04-04T06:44:14;99376.81;;;2.25;100.00
9307;BME280;4691;47.612;7.610;2023-04-04T06:46:40;99379.41;;;2.26;100.00
9307;BME280;4691;47.612;7.610;2023-04-04T06:49:05;99375.97;;;2.49;100.00
9307;BME280;4691;47.612;7.610;2023-04-04T06:51:32;99376.38;;;2.62;100.00
9307;BME280;4691;47.612;7.610;2023-04-04T06:53:59;99370.00;;;2.68;100.00
9307;BME280;4691;47.612;7.610;2023-04-04T06:56:25;99372.56;;;2.69;100.00
9307;BME280;4691;47.612;7.610;2023-04-04T06:58:51;99371.38;;;2.78;100.00
9307;BME280;4691;47.612;7.610;2023-04-04T07:01:16;99365.63;;;2.90;100.00
9307;BME280;4691;47.612;7.610;2023-04-04T07:03:41;99370.72;;;3.40;100.00
9307;BME280;4691;47.612;7.610;2023-04-04T07:06:08;99359.31;;;3.40;100.00
9307;BME280;4691;47.612;7.610;2023-04-04T07:08:34;99361.00;;;3.41;100.00
9307;BME280;4691;47.612;7.610;2023-04-04T07:10:59;99364.19;;;3.49;100.00
9307;BME280;4691;47.612;7.610;2023-04-04T07:13:25;99370.72;;;2.95;100.00
9307;BME280;4691;47.612;7.610;2023-04-04T07:15:51;99370.31;;;3.29;100.00
9307;BME280;4691;47.612;7.610;2023-04-04T07:18:16;99368.75;;;3.45;100.00
9307;BME280;4691;47.612;7.610;2023-04-04T07:20:42;99362.59;;;3.67;100.00
9307;BME280;4691;47.612;7.610;2023-04-04T07:23:08;99359.03;;;3.68;100.00
9307;BME280;4691;47.612;7.610;2023-04-04T07:25:35;99355.13;;;4.19;100.00
9307;BME280;4691;47.612;7.610;2023-04-04T07:28:00;99353.50;;;4.15;100.00
9307;BME280;4691;47.612;7.610;2023-04-04T07:30:25;99360.78;;;3.89;100.00
9307;BME280;4691;47.612;7.610;2023-04-04T07:33:01;99367.41;;;3.57;100.00
9307;BME280;4691;47.612;7.610;2023-04-04T07:35:26;99367.78;;;3.70;100.00
9307;BME280;4691;47.612;7.610;2023-04-04T07:37:52;99363.91;;;3.99;100.00
9307;BME280;4691;47.612;7.610;2023-04-04T07:40:18;99359.94;;;4.09;100.00
9307;BME280;4691;47.612;7.610;2023-04-04T07:42:44;99352.00;;;4.30;100.00
9307;BME280;4691;47.612;7.610;2023-04-04T07:45:10;99356.00;;;4.39;100.00
9307;BME280;4691;47.612;7.610;2023-04-04T07:47:35;99342.06;;;4.35;100.00
9307;BME280;4691;47.612;7.610;2023-04-04T07:50:01;99334.69;;;4.42;100.00
9307;BME280;4691;47.612;7.610;2023-04-04T07:52:28;99352.94;;;4.68;100.00
9307;BME280;4691;47.612;7.610;2023-04-04T07:54:53;99332.75;;;4.85;100.00
9307;BME280;4691;47.612;7.610;2023-04-04T07:57:18;99337.47;;;4.97;100.00
9307;BME280;4691;47.612;7.610;2023-04-04T07:59:44;99346.28;;;4.97;100.00
9307;BME280;4691;47.612;7.610;2023-04-04T08:02:09;99348.66;;;4.85;100.00
9307;BME280;4691;47.612;7.610;2023-04-04T08:04:35;99347.94;;;5.00;100.00
9307;BME280;4691;47.612;7.610;2023-04-04T08:07:00;99330.19;;;5.38;100.00
9307;BME280;4691;47.612;7.610;2023-04-04T08:09:25;99303.88;;;5.53;100.00
9307;BME280;4691;47.612;7.610;2023-04-04T08:11:55;99292.06;;;5.93;100.00
9307;BME280;4691;47.612;7.610;2023-04-04T08:14:21;99314.66;;;5.84;100.00
9307;BME280;4691;47.612;7.610;2023-04-04T08:16:46;99340.47;;;5.08;100.00
9307;BME280;4691;47.612;7.610;2023-04-04T08:19:12;99326.41;;;5.61;100.00
9307;BME280;4691;47.612;7.610;2023-04-04T08:21:37;99298.09;;;5.79;100.00
9307;BME280;4691;47.612;7.610;2023-04-04T08:24:03;99309.56;;;5.80;100.00
9307;BME280;4691;47.612;7.610;2023-04-04T08:26:28;99311.31;;;5.98;100.00
9307;BME280;4691;47.612;7.610;2023-04-04T08:28:54;99307.22;;;6.43;100.00
9307;BME280;4691;47.612;7.610;2023-04-04T08:31:19;99282.22;;;6.47;100.00
9307;BME280;4691;47.612;7.610;2023-04-04T08:33:45;99289.50;;;6.60;100.00
9307;BME280;4691;47.612;7.610;2023-04-04T08:36:10;99287.84;;;6.41;100.00
9307;BME280;4691;47.612;7.610;2023-04-04T08:38:36;99301.44;;;6.68;100.00
9307;BME280;4691;47.612;7.610;2023-04-04T08:41:01;99305.03;;;6.83;100.00
9307;BME280;4691;47.612;7.610;2023-04-04T08:43:26;99297.00;;;7.01;100.00
9307;BME280;4691;47.612;7.610;2023-04-04T08:45:53;99300.25;;;7.06;100.00
9307;BME280;4691;47.612;7.610;2023-04-04T08:48:18;99300.50;;;7.33;100.00
9307;BME280;4691;47.612;7.610;2023-04-04T08:50:45;99311.66;;;6.92;100.00
9307;BME280;4691;47.612;7.610;2023-04-04T08:53:11;99307.47;;;7.35;100.00
9307;BME280;4691;47.612;7.610;2023-04-04T08:55:37;99295.78;;;6.90;100.00
9307;BME280;4691;47.612;7.610;2023-04-04T08:58:03;99299.53;;;7.66;100.00
9307;BME280;4691;47.612;7.610;2023-04-04T09:00:28;99310.13;;;7.35;100.00
9307;BME280;4691;47.612;7.610;2023-04-04T09:03:00;99277.66;;;7.75;100.00
9307;BME280;4691;47.612;7.610;2023-04-04T09:05:29;99294.59;;;7.74;100.00
9307;BME280;4691;47.612;7.610;2023-04-04T09:07:55;99271.16;;;7.64;100.00
9307;BME280;4691;47.612;7.610;2023-04-04T09:10:20;99293.84;;;8.16;100.00
9307;BME280;4691;47.612;7.610;2023-04-04T09:12:47;99270.19;;;7.81;100.00
9307;BME280;4691;47.612;7.610;2023-04-04T09:15:13;99341.59;;;7.59;100.00
9307;BME280;4691;47.612;7.610;2023-04-04T09:17:39;99383.47;;;7.39;100.00
9307;BME280;4691;47.612;7.610;2023-04-04T09:22:57;99367.16;;;7.14;100.00
9307;BME280;4691;47.612;7.610;2023-04-04T09:25:23;99364.56;;;7.92;100.00
9307;BME280;4691;47.612;7.610;2023-04-04T09:27:48;99350.84;;;8.28;100.00
9307;BME280;4691;47.612;7.610;2023-04-04T09:30:14;99363.22;;;7.69;100.00
9307;BME280;4691;47.612;7.610;2023-04-04T09:32:40;99362.53;;;7.49;100.00
9307;BME280;4691;47.612;7.610;2023-04-04T09:35:05;99358.94;;;7.96;100.00
9307;BME280;4691;47.612;7.610;2023-04-04T09:37:31;99364.91;;;7.85;100.00
9307;BME280;4691;47.612;7.610;2023-04-04T09:39:56;99364.44;;;8.23;100.00
9307;BME280;4691;47.612;7.610;2023-04-04T09:42:23;99365.13;;;8.71;100.00
9307;BME280;4691;47.612;7.610;2023-04-04T09:44:52;99362.63;;;8.10;100.00
9307;BME280;4691;47.612;7.610;2023-04-04T09:49:48;99353.91;;;8.36;100.00
9307;BME280;4691;47.612;7.610;2023-04-04T09:52:17;99369.41;;;8.29;100.00
9307;BME280;4691;47.612;7.610;2023-04-04T09:54:44;99308.44;;;12.39;100.00
9307;BME280;4691;47.612;7.610;2023-04-04T09:57:09;99245.16;;;13.80;100.00
9307;BME280;4691;47.612;7.610;2023-04-04T09:59:35;99226.16;;;14.65;100.00
9307;BME280;4691;47.612;7.610;2023-04-04T10:02:01;99182.63;;;15.59;100.00
9307;BME280;4691;47.612;7.610;2023-04-04T10:04:30;99214.69;;;15.13;100.00
9307;BME280;4691;47.612;7.610;2023-04-04T10:06:58;99175.69;;;16.42;100.00
9307;BME280;4691;47.612;7.610;2023-04-04T10:09:23;99172.56;;;16.37;100.00
9307;BME280;4691;47.612;7.610;2023-04-04T10:11:49;99229.22;;;14.91;100.00
9307;BME280;4691;47.612;7.610;2023-04-04T10:14:15;99253.56;;;12.20;100.00
9307;BME280;4691;47.612;7.610;2023-04-04T10:16:44;99204.78;;;16.76;100.00
9307;BME280;4691;47.612;7.610;2023-04-04T10:19:09;99233.31;;;14.03;100.00
9307;BME280;4691;47.612;7.610;2023-04-04T10:21:35;99184.81;;;16.31;100.00
9307;BME280;4691;47.612;7.610;2023-04-04T10:24:01;99168.31;;;15.49;100.00
9307;BME280;4691;47.612;7.610;2023-04-04T10:26:33;99147.59;;;17.62;100.00
9307;BME280;4691;47.612;7.610;2023-04-04T10:28:58;99209.97;;;16.13;100.00
9307;BME280;4691;47.612;7.610;2023-04-04T10:31:24;99214.13;;;15.97;100.00
9307;BME280;4691;47.612;7.610;2023-04-04T10:34:09;99195.78;;;16.10;100.00
9307;BME280;4691;47.612;7.610;2023-04-04T10:36:53;99198.81;;;16.82;100.00
9307;BME280;4691;47.612;7.610;2023-04-04T10:39:28;99204.53;;;16.42;100.00
9307;BME280;4691;47.612;7.610;2023-04-04T10:41:57;99145.16;;;17.33;100.00
9307;BME280;4691;47.612;7.610;2023-04-04T10:44:28;99156.06;;;18.71;100.00
9307;BME280;4691;47.612;7.610;2023-04-04T10:46:55;99147.81;;;17.87;100.00
9307;BME280;4691;47.612;7.610;2023-04-04T10:49:23;99159.09;;;17.64;100.00
9307;BME280;4691;47.612;7.610;2023-04-04T10:51:50;99132.38;;;16.62;100.00
9307;BME280;4691;47.612;7.610;2023-04-04T10:54:16;99158.38;;;16.35;100.00
9307;BME280;4691;47.612;7.610;2023-04-04T10:56:42;99134.06;;;19.33;100.00
9307;BME280;4691;47.612;7.610;2023-04-04T10:59:12;99186.22;;;15.59;100.00
9307;BME280;4691;47.612;7.610;2023-04-04T11:04:21;99147.94;;;18.71;100.00
9307;BME280;4691;47.612;7.610;2023-04-04T11:07:11;99130.59;;;18.14;100.00
9307;BME280;4691;47.612;7.610;2023-04-04T11:09:50;99141.97;;;16.74;100.00
9307;BME280;4691;47.612;7.610;2023-04-04T11:12:19;99050.53;;;20.17;100.00
9307;BME280;4691;47.612;7.610;2023-04-04T11:20:23;99124.75;;;18.26;100.00
9307;BME280;4691;47.612;7.610;2023-04-04T11:22:49;99108.81;;;17.71;100.00
9307;BME280;4691;47.612;7.610;2023-04-04T11:25:27;99097.97;;;19.17;100.00
9307;BME280;4691;47.612;7.610;2023-04-04T11:27:53;99082.88;;;19.22;100.00
9307;BME280;4691;47.612;7.610;2023-04-04T11:30:19;99089.44;;;19.03;100.00
9307;BME280;4691;47.612;7.610;2023-04-04T11:32:48;99052.03;;;20.28;100.00
9307;BME280;4691;47.612;7.610;2023-04-04T11:35:14;99099.69;;;18.24;100.00
9307;BME280;4691;47.612;7.610;2023-04-04T11:37:57;99050.16;;;19.81;100.00
9307;BME280;4691;47.612;7.610;2023-04-04T11:40:39;99016.31;;;20.39;100.00
9307;BME280;4691;47.612;7.610;2023-04-04T11:43:09;98999.75;;;20.88;100.00
9307;BME280;4691;47.612;7.610;2023-04-04T11:45:35;99000.81;;;20.56;100.00
9307;BME280;4691;47.612;7.610;2023-04-04T11:48:02;99038.97;;;19.68;100.00
9307;BME280;4691;47.612;7.610;2023-04-04T11:50:39;99012.38;;;19.47;100.00
9307;BME280;4691;47.612;7.610;2023-04-04T11:53:06;98974.03;;;20.76;100.00
9307;BME280;4691;47.612;7.610;2023-04-04T11:55:37;98989.72;;;21.65;100.00
9307;BME280;4691;47.612;7.610;2023-04-04T11:58:10;98980.81;;;21.18;100.00
9307;BME280;4691;47.612;7.610;2023-04-04T12:00:37;98966.34;;;21.70;100.00
9307;BME280;4691;47.612;7.610;2023-04-04T12:03:07;98926.03;;;22.61;100.00
9307;BME280;4691;47.612;7.610;2023-04-04T12:05:36;99010.34;;;20.13;100.00
9307;BME280;4691;47.612;7.610;2023-04-04T12:08:02;98992.13;;;21.45;100.00
9307;BME280;4691;47.612;7.610;2023-04-04T12:10:30;99026.44;;;18.85;100.00
9307;BME280;4691;47.612;7.610;2023-04-04T12:12:57;98949.91;;;23.87;100.00
9307;BME280;4691;47.612;7.610;2023-04-04T12:15:22;98912.13;;;23.56;100.00
9307;BME280;4691;47.612;7.610;2023-04-04T12:17:48;98986.75;;;21.37;100.00
9307;BME280;4691;47.612;7.610;2023-04-04T12:20:15;98901.97;;;22.93;100.00
9307;BME280;4691;47.612;7.610;2023-04-04T12:22:41;98960.03;;;21.25;100.00
9307;BME280;4691;47.612;7.610;2023-04-04T12:25:07;98976.63;;;20.38;100.00
9307;BME280;4691;47.612;7.610;2023-04-04T12:27:32;98934.47;;;24.14;100.00
9307;BME280;4691;47.612;7.610;2023-04-04T12:29:59;98944.78;;;21.54;100.00
9307;BME280;4691;47.612;7.610;2023-04-04T12:32:25;98999.13;;;20.55;100.00
9307;BME280;4691;47.612;7.610;2023-04-04T12:34:51;98990.28;;;20.84;100.00
9307;BME280;4691;47.612;7.610;2023-04-04T12:37:16;98944.97;;;22.70;100.00
9307;BME280;4691;47.612;7.610;2023-04-04T12:39:47;98931.59;;;22.75;100.00
9307;BME280;4691;47.612;7.610;2023-04-04T12:42:19;98893.72;;;24.19;100.00
9307;BME280;4691;47.612;7.610;2023-04-04T12:44:46;98959.34;;;21.23;100.00
9307;BME280;4691;47.612;7.610;2023-04-04T12:47:12;98962.69;;;22.23;100.00
9307;BME280;4691;47.612;7.610;2023-04-04T12:49:45;98959.25;;;21.99;100.00
9307;BME280;4691;47.612;7.610;2023-04-04T12:52:20;98923.06;;;22.99;100.00
9307;BME280;4691;47.612;7.610;2023-04-04T12:54:47;98961.69;;;21.64;100.00
9307;BME280;4691;47.612;7.610;2023-04-04T12:57:21;98965.22;;;21.50;100.00
9307;BME280;4691;47.612;7.610;2023-04-04T12:59:48;98966.38;;;21.18;100.00
9307;BME280;4691;47.612;7.610;2023-04-04T13:02:16;98958.75;;;21.81;100.00
9307;BME280;4691;47.612;7.610;2023-04-04T13:04:46;98983.78;;;20.85;100.00
9307;BME280;4691;47.612;7.610;2023-04-04T13:10:00;98875.53;;;24.99;100.00
9307;BME280;4691;47.612;7.610;2023-04-04T13:12:55;98918.75;;;22.90;100.00
9307;BME280;4691;47.612;7.610;2023-04-04T13:15:22;98901.09;;;23.42;100.00
9307;BME280;4691;47.612;7.610;2023-04-04T13:17:49;98971.19;;;20.38;100.00
9307;BME280;4691;47.612;7.610;2023-04-04T13:20:19;98953.63;;;21.56;100.00
9307;BME280;4691;47.612;7.610;2023-04-04T13:22:45;98939.72;;;21.81;100.00
9307;BME280;4691;47.612;7.610;2023-04-04T13:25:11;98947.13;;;21.19;100.00
9307;BME280;4691;47.612;7.610;2023-04-04T13:27:37;98983.66;;;21.25;100.00
9307;BME280;4691;47.612;7.610;2023-04-04T13:30:03;98887.59;;;25.83;100.00
9307;BME280;4691;47.612;7.610;2023-04-04T13:32:28;98894.94;;;23.68;100.00
9307;BME280;4691;47.612;7.610;2023-04-04T13:34:54;98921.41;;;22.04;100.00
9307;BME280;4691;47.612;7.610;2023-04-04T13:37:19;98854.53;;;24.60;100.00